Global Echo — 3FBK5 — position and weather

sailwx.info

Track history (hours):
 
Tides and Currents Weather Stations Pressure Air Temp Water Temp Dewpoint Dewpoint Depression Visibility Wind Speed Wind Dir Waves Ship Positions

Global Echo

Last reported at 2017-Dec-17 03:58 UTC. Time now 2017-Dec-17 04:08 UTC.
Position N 49°18' W 123°13'.

Length 169 m; draft 5.3 m.

Type: Cargo ship. MMSI: 373900000.

Date/timePositionNaut miles runAvg speedWind from/ knotsBaromVisibWave heightAir tempDewpointWater temp
2017-Dec-17 03:58N 49°18' W 123°13'0 0.1
2017-Dec-17 03:31N 49°18' W 123°13'0 0.0
2017-Dec-17 02:58N 49°18' W 123°13'0 0.0
2017-Dec-17 02:31N 49°18' W 123°13'0 0.0
2017-Dec-17 02:01N 49°18' W 123°13'0 0.0
2017-Dec-17 01:31N 49°18' W 123°13'0 0.0
2017-Dec-17 01:01N 49°18' W 123°13'0 0.0
2017-Dec-17 00:31N 49°18' W 123°13'0 0.0
2017-Dec-16 23:58N 49°18' W 123°13'0 0.0
2017-Dec-16 23:28N 49°18' W 123°13'0 0.0
2017-Dec-16 23:01N 49°18' W 123°13'0 0.0
2017-Dec-16 22:28N 49°18' W 123°13'0 0.0
2017-Dec-16 21:58N 49°18' W 123°13'0 0.1
2017-Dec-16 21:28N 49°18' W 123°13'0 0.1
2017-Dec-16 21:01N 49°18' W 123°13'0 0.1
2017-Dec-16 20:28N 49°18' W 123°13'0 0.0
2017-Dec-16 19:58N 49°18' W 123°13'0 0.0
2017-Dec-16 19:25N 49°18' W 123°13'0 0.1
2017-Dec-16 18:58N 49°18' W 123°13'0 0.2
2017-Dec-16 18:31N 49°18' W 123°13'0 0.0
2017-Dec-16 18:01N 49°18' W 123°13'0 0.2
2017-Dec-16 17:31N 49°18' W 123°13'0 0.0
2017-Dec-16 16:58N 49°18' W 123°13'0 0.0
2017-Dec-16 16:28N 49°18' W 123°13'0 0.0
2017-Dec-16 16:01N 49°18' W 123°13'0 0.0
2017-Dec-16 15:25N 49°18' W 123°13'0 0.0
2017-Dec-16 15:01N 49°18' W 123°13'0 0.6
2017-Dec-16 14:30N 49°18' W 123°13'3 5.7
2017-Dec-16 14:00N 49°18' W 123°17'612.8
2017-Dec-16 13:30N 49°11' W 123°19'713.5
2017-Dec-16 13:00N 49°04' W 123°20'713.7
2017-Dec-16 12:30N 48°59' W 123°13'713.8
2017-Dec-16 12:00N 48°55' W 123°05'714.3
2017-Dec-16 11:30N 48°49' W 122°60'815.5
2017-Dec-16 11:00N 48°43' W 123°08'612.5
2017-Dec-16 10:30N 48°38' W 123°14'815.5
2017-Dec-16 10:01N 48°31' W 123°11'714.7
2017-Dec-16 09:31N 48°24' W 123°13'713.5
2017-Dec-16 09:01N 48°22' W 123°23'4 7.1
2017-Dec-16 08:30N 48°19' W 123°25'4 7.2
2017-Dec-16 08:00N 48°15' W 123°27'4 9.0
2017-Dec-16 07:30N 48°13' W 123°33'4 7.4
2017-Dec-16 07:00N 48°13' W 123°38'4 7.2
2017-Dec-16 06:30N 48°13' W 123°44'4 7.2
2017-Dec-16 06:00N 48°13' W 123°49'3 6.0
2017-Dec-16 05:30N 48°13' W 123°54'3 6.3
2017-Dec-16 05:00N 48°14' W 123°58'4 6.9
2017-Dec-16 04:30N 48°16' W 124°03'4 7.5
2017-Dec-16 04:00N 48°17' W 124°08'4 8.9
2017-Dec-16 03:30N 48°19' W 124°14'3 7.0
2017-Dec-16 03:00N 48°21' W 124°19'3 5.9
2017-Dec-16 02:30N 48°22' W 124°23'3 6.5
2017-Dec-16 02:00N 48°24' W 124°27'4 8.8
2017-Dec-16 01:30N 48°25' W 124°33'4 8.6
2017-Dec-16 01:00N 48°27' W 124°39'5 9.1
2017-Dec-16 00:30N 48°29' W 124°45'5 9.3
2017-Dec-16 00:00N 48°29' W 124°52'5 9.2
2017-Dec-15 23:30N 48°29' W 124°59'5 9.8
2017-Dec-15 23:00N 48°29' W 125°07'510.2
2017-Dec-15 22:30N 48°29' W 125°15'510.2
2017-Dec-15 22:00N 48°29' W 125°22'5 9.7
2017-Dec-15 21:30N 48°29' W 125°29'5 9.6
2017-Dec-15 21:00N 48°29' W 125°37'5 9.6
2017-Dec-15 20:30N 48°29' W 125°44'510.6
2017-Dec-15 20:00N 48°29' W 125°52'611.0
2017-Dec-15 19:29N 48°29' W 126°01'511.4
2017-Dec-15 19:00N 48°29' W 126°09'611.4
2017-Dec-15 18:30N 48°29' W 126°17'611.4
2017-Dec-15 18:00N 48°29' W 126°26'611.1
2017-Dec-15 17:26N 48°29' W 126°36'  
Track history (hours):
 
Tides and Currents Weather Stations Pressure Air Temp Water Temp Dewpoint Dewpoint Depression Visibility Wind Speed Wind Dir Waves Ship Positions

Global Echo

Last reported at 2017-Dec-17 03:58 UTC. Time now 2017-Dec-17 04:08 UTC.
Position N 49°18' W 123°13'.

Length 169 m; draft 5.3 m.

Type: Cargo ship. MMSI: 373900000.

Date/timePositionNaut miles runAvg speedWind from/ knotsBaromVisibWave heightAir tempDewpointWater temp
2017-Dec-17 03:58N 49°18' W 123°13'0 0.1
2017-Dec-17 03:31N 49°18' W 123°13'0 0.0
2017-Dec-17 02:58N 49°18' W 123°13'0 0.0
2017-Dec-17 02:31N 49°18' W 123°13'0 0.0
2017-Dec-17 02:01N 49°18' W 123°13'0 0.0
2017-Dec-17 01:31N 49°18' W 123°13'0 0.0
2017-Dec-17 01:01N 49°18' W 123°13'0 0.0
2017-Dec-17 00:31N 49°18' W 123°13'0 0.0
2017-Dec-16 23:58N 49°18' W 123°13'0 0.0
2017-Dec-16 23:28N 49°18' W 123°13'0 0.0
2017-Dec-16 23:01N 49°18' W 123°13'0 0.0
2017-Dec-16 22:28N 49°18' W 123°13'0 0.0
2017-Dec-16 21:58N 49°18' W 123°13'0 0.1
2017-Dec-16 21:28N 49°18' W 123°13'0 0.1
2017-Dec-16 21:01N 49°18' W 123°13'0 0.1
2017-Dec-16 20:28N 49°18' W 123°13'0 0.0
2017-Dec-16 19:58N 49°18' W 123°13'0 0.0
2017-Dec-16 19:25N 49°18' W 123°13'0 0.1
2017-Dec-16 18:58N 49°18' W 123°13'0 0.2
2017-Dec-16 18:31N 49°18' W 123°13'0 0.0
2017-Dec-16 18:01N 49°18' W 123°13'0 0.2
2017-Dec-16 17:31N 49°18' W 123°13'0 0.0
2017-Dec-16 16:58N 49°18' W 123°13'0 0.0
2017-Dec-16 16:28N 49°18' W 123°13'0 0.0
2017-Dec-16 16:01N 49°18' W 123°13'0 0.0
2017-Dec-16 15:25N 49°18' W 123°13'0 0.0
2017-Dec-16 15:01N 49°18' W 123°13'0 0.6
2017-Dec-16 14:30N 49°18' W 123°13'3 5.7
2017-Dec-16 14:00N 49°18' W 123°17'612.8
2017-Dec-16 13:30N 49°11' W 123°19'713.5
2017-Dec-16 13:00N 49°04' W 123°20'713.7
2017-Dec-16 12:30N 48°59' W 123°13'713.8
2017-Dec-16 12:00N 48°55' W 123°05'714.3
2017-Dec-16 11:30N 48°49' W 122°60'815.5
2017-Dec-16 11:00N 48°43' W 123°08'612.5
2017-Dec-16 10:30N 48°38' W 123°14'815.5
2017-Dec-16 10:01N 48°31' W 123°11'714.7
2017-Dec-16 09:31N 48°24' W 123°13'713.5
2017-Dec-16 09:01N 48°22' W 123°23'4 7.1
2017-Dec-16 08:30N 48°19' W 123°25'4 7.2
2017-Dec-16 08:00N 48°15' W 123°27'4 9.0
2017-Dec-16 07:30N 48°13' W 123°33'4 7.4
2017-Dec-16 07:00N 48°13' W 123°38'4 7.2
2017-Dec-16 06:30N 48°13' W 123°44'4 7.2
2017-Dec-16 06:00N 48°13' W 123°49'3 6.0
2017-Dec-16 05:30N 48°13' W 123°54'3 6.3
2017-Dec-16 05:00N 48°14' W 123°58'4 6.9
2017-Dec-16 04:30N 48°16' W 124°03'4 7.5
2017-Dec-16 04:00N 48°17' W 124°08'4 8.9
2017-Dec-16 03:30N 48°19' W 124°14'3 7.0
2017-Dec-16 03:00N 48°21' W 124°19'3 5.9
2017-Dec-16 02:30N 48°22' W 124°23'3 6.5
2017-Dec-16 02:00N 48°24' W 124°27'4 8.8
2017-Dec-16 01:30N 48°25' W 124°33'4 8.6
2017-Dec-16 01:00N 48°27' W 124°39'5 9.1
2017-Dec-16 00:30N 48°29' W 124°45'5 9.3
2017-Dec-16 00:00N 48°29' W 124°52'5 9.2
2017-Dec-15 23:30N 48°29' W 124°59'5 9.8
2017-Dec-15 23:00N 48°29' W 125°07'510.2
2017-Dec-15 22:30N 48°29' W 125°15'510.2
2017-Dec-15 22:00N 48°29' W 125°22'5 9.7
2017-Dec-15 21:30N 48°29' W 125°29'5 9.6
2017-Dec-15 21:00N 48°29' W 125°37'5 9.6
2017-Dec-15 20:30N 48°29' W 125°44'510.6
2017-Dec-15 20:00N 48°29' W 125°52'611.0
2017-Dec-15 19:29N 48°29' W 126°01'511.4
2017-Dec-15 19:00N 48°29' W 126°09'611.4
2017-Dec-15 18:30N 48°29' W 126°17'611.4
2017-Dec-15 18:00N 48°29' W 126°26'611.1
2017-Dec-15 17:26N 48°29' W 126°36'  

Dump ship's entire track history